sensor_id;sensor_type;location;lat;lon;timestamp;temperature;humidity
59703;DHT22;45570;48.782;8.332;2023-06-22T19:16:17;26.20;99.90
59703;DHT22;45570;48.782;8.332;2023-06-22T19:18:48;26.00;99.90
59703;DHT22;45570;48.782;8.332;2023-06-22T19:21:25;25.80;99.90
59703;DHT22;45570;48.782;8.332;2023-06-22T19:23:55;25.60;99.90
59703;DHT22;45570;48.782;8.332;2023-06-22T19:26:24;25.40;99.90
59703;DHT22;45570;48.782;8.332;2023-06-22T19:28:55;25.30;99.90
59703;DHT22;45570;48.782;8.332;2023-06-22T19:31:25;25.20;99.90
59703;DHT22;45570;48.782;8.332;2023-06-22T19:34:01;25.10;99.90
59703;DHT22;45570;48.782;8.332;2023-06-22T19:36:34;24.80;99.90
59703;DHT22;45570;48.782;8.332;2023-06-22T19:39:04;24.30;99.90
59703;DHT22;45570;48.782;8.332;2023-06-22T19:41:38;23.20;99.90
59703;DHT22;45570;48.782;8.332;2023-06-22T19:44:10;22.10;99.90
59703;DHT22;45570;48.782;8.332;2023-06-22T19:46:43;21.40;99.90
59703;DHT22;45570;48.782;8.332;2023-06-22T19:49:16;21.00;99.90
59703;DHT22;45570;48.782;8.332;2023-06-22T19:51:47;20.80;99.90
59703;DHT22;45570;48.782;8.332;2023-06-22T19:54:17;20.60;99.90
59703;DHT22;45570;48.782;8.332;2023-06-22T19:56:49;20.40;99.90
59703;DHT22;45570;48.782;8.332;2023-06-22T19:59:22;20.40;99.90
59703;DHT22;45570;48.782;8.332;2023-06-22T20:01:53;20.30;99.90
59703;DHT22;45570;48.782;8.332;2023-06-22T20:04:23;20.20;99.90
59703;DHT22;45570;48.782;8.332;2023-06-22T20:07:05;20.00;99.90
59703;DHT22;45570;48.782;8.332;2023-06-22T20:09:35;20.00;99.90
59703;DHT22;45570;48.782;8.332;2023-06-22T20:12:09;19.90;99.90
59703;DHT22;45570;48.782;8.332;2023-06-22T20:14:38;19.90;99.90
59703;DHT22;45570;48.782;8.332;2023-06-22T20:17:09;19.90;99.90
59703;DHT22;45570;48.782;8.332;2023-06-22T20:19:43;20.00;99.90
59703;DHT22;45570;48.782;8.332;2023-06-22T20:22:15;19.80;99.90
59703;DHT22;45570;48.782;8.332;2023-06-22T20:24:47;19.70;99.90
59703;DHT22;45570;48.782;8.332;2023-06-22T20:27:18;19.70;99.90
59703;DHT22;45570;48.782;8.332;2023-06-22T20:29:57;19.70;99.90
59703;DHT22;45570;48.782;8.332;2023-06-22T20:32:55;19.60;99.90
59703;DHT22;45570;48.782;8.332;2023-06-22T20:35:38;19.50;99.90
59703;DHT22;45570;48.782;8.332;2023-06-22T20:38:12;19.50;99.90
59703;DHT22;45570;48.782;8.332;2023-06-22T20:40:42;19.50;99.90
59703;DHT22;45570;48.782;8.332;2023-06-22T20:43:13;19.40;99.90
59703;DHT22;45570;48.782;8.332;2023-06-22T20:45:42;19.50;99.90
59703;DHT22;45570;48.782;8.332;2023-06-22T20:48:11;19.50;99.90
59703;DHT22;45570;48.782;8.332;2023-06-22T20:50:42;19.40;99.90
59703;DHT22;45570;48.782;8.332;2023-06-22T20:53:13;19.40;99.90
59703;DHT22;45570;48.782;8.332;2023-06-22T20:55:42;19.40;99.90
59703;DHT22;45570;48.782;8.332;2023-06-22T20:58:12;19.40;99.90
59703;DHT22;45570;48.782;8.332;2023-06-22T21:00:41;19.50;99.90
59703;DHT22;45570;48.782;8.332;2023-06-22T21:03:10;19.50;99.90
59703;DHT22;45570;48.782;8.332;2023-06-22T21:05:40;19.40;99.90
59703;DHT22;45570;48.782;8.332;2023-06-22T21:08:09;19.40;99.90
59703;DHT22;45570;48.782;8.332;2023-06-22T21:10:39;19.40;99.90
59703;DHT22;45570;48.782;8.332;2023-06-22T21:13:09;19.30;99.90
59703;DHT22;45570;48.782;8.332;2023-06-22T21:15:38;19.30;99.90
59703;DHT22;45570;48.782;8.332;2023-06-22T21:18:07;19.30;99.90
59703;DHT22;45570;48.782;8.332;2023-06-22T21:20:36;19.20;99.90
